createdAt,value
2017-12-11T00:00:20.260Z,6.17
2017-12-11T00:01:25.962Z,6.18
2017-12-11T00:02:31.723Z,6.19
2017-12-11T00:03:38.201Z,6.20
2017-12-11T00:04:43.894Z,6.24
2017-12-11T00:05:49.598Z,6.23
2017-12-11T00:06:55.307Z,6.18
2017-12-11T00:08:01.037Z,6.24
2017-12-11T00:09:06.496Z,6.23
2017-12-11T00:10:11.863Z,6.19
2017-12-11T00:11:17.679Z,6.18
2017-12-11T00:12:23.075Z,6.17
2017-12-11T00:13:29.248Z,6.18
2017-12-11T00:14:34.668Z,6.17
2017-12-11T00:15:41.124Z,6.12
2017-12-11T00:16:46.220Z,6.12
2017-12-11T00:17:51.923Z,6.10
2017-12-11T00:18:57.640Z,6.07
2017-12-11T00:20:03.344Z,5.99
2017-12-11T00:21:08.724Z,5.97
2017-12-11T00:22:13.778Z,5.93
2017-12-11T00:23:19.562Z,5.87
2017-12-11T00:24:25.292Z,5.82
2017-12-11T00:25:31.801Z,5.79
2017-12-11T00:26:37.516Z,5.78
2017-12-11T00:27:42.602Z,5.78
2017-12-11T00:28:48.307Z,5.80
2017-12-11T00:29:54.074Z,5.86
2017-12-11T00:30:59.834Z,5.92
2017-12-11T00:32:05.537Z,5.97
2017-12-11T00:33:11.239Z,6.01
2017-12-11T00:34:17.706Z,6.06
2017-12-11T00:35:23.444Z,6.08
2017-12-11T00:36:29.910Z,6.13
2017-12-11T00:37:35.657Z,6.17
2017-12-11T00:38:41.558Z,6.21
2017-12-11T00:39:48.157Z,6.25
2017-12-11T00:40:53.976Z,6.29
2017-12-11T00:41:59.826Z,6.33
2017-12-11T00:43:05.987Z,6.35
2017-12-11T00:44:11.893Z,6.37
2017-12-11T00:45:17.271Z,6.39
2017-12-11T00:46:22.365Z,6.35
2017-12-11T00:47:28.171Z,6.38
2017-12-11T00:48:33.947Z,6.40
2017-12-11T00:49:39.691Z,6.42
2017-12-11T00:50:45.049Z,6.43
2017-12-11T00:51:50.440Z,6.45
2017-12-11T00:52:56.068Z,6.47
2017-12-11T00:54:01.863Z,6.50
2017-12-11T00:55:08.368Z,6.50
2017-12-11T00:56:14.105Z,6.52
2017-12-11T00:57:19.494Z,6.52
2017-12-11T00:58:26.010Z,6.54
2017-12-11T00:59:31.834Z,6.53
2017-12-11T01:00:37.534Z,6.53
2017-12-11T01:01:43.794Z,6.53
2017-12-11T01:02:49.634Z,6.55
2017-12-11T01:03:55.792Z,6.56
2017-12-11T01:05:01.624Z,6.57
2017-12-11T01:06:07.676Z,6.59
2017-12-11T01:07:13.827Z,6.59
2017-12-11T01:08:19.671Z,6.59
2017-12-11T01:09:25.485Z,6.59
2017-12-11T01:10:30.583Z,6.60
2017-12-11T01:11:36.385Z,6.62
2017-12-11T01:12:41.767Z,6.61
2017-12-11T01:13:47.484Z,6.59
2017-12-11T01:14:53.208Z,6.57
2017-12-11T01:15:58.897Z,6.55
2017-12-11T01:17:04.587Z,6.53
2017-12-11T01:18:10.286Z,6.49
2017-12-11T01:19:16.169Z,6.48
2017-12-11T01:20:22.619Z,6.46
2017-12-11T01:21:28.767Z,6.42
2017-12-11T01:22:35.326Z,6.39
2017-12-11T01:23:41.025Z,6.34
2017-12-11T01:24:47.128Z,6.32
2017-12-11T01:25:52.502Z,6.32
2017-12-11T01:26:58.195Z,6.31
2017-12-11T01:28:03.885Z,6.30
2017-12-11T01:29:09.605Z,6.28
2017-12-11T01:30:15.320Z,6.27
2017-12-11T01:31:20.170Z,6.25
2017-12-11T01:32:25.900Z,6.21
2017-12-11T01:33:31.629Z,6.19
2017-12-11T01:34:37.532Z,6.17
2017-12-11T01:35:43.266Z,6.15
2017-12-11T01:36:48.680Z,6.14
2017-12-11T01:37:54.441Z,6.10
2017-12-11T01:39:00.168Z,6.06
2017-12-11T01:40:05.484Z,6.05
2017-12-11T01:41:10.563Z,6.04
2017-12-11T01:42:16.382Z,6.04
2017-12-11T01:43:21.780Z,6.05
2017-12-11T01:44:27.156Z,6.05
2017-12-11T01:45:32.214Z,6.04
2017-12-11T01:46:37.308Z,6.02
2017-12-11T01:47:43.796Z,6.03
2017-12-11T01:48:49.606Z,6.03
2017-12-11T01:49:55.320Z,6.03
2017-12-11T01:51:00.351Z,6.01
2017-12-11T01:52:05.456Z,6.04
2017-12-11T01:53:11.146Z,6.07
2017-12-11T01:54:16.877Z,6.07
2017-12-11T01:55:22.762Z,6.09
2017-12-11T01:56:28.464Z,6.11
2017-12-11T01:57:34.206Z,6.10
2017-12-11T01:58:39.919Z,6.11
2017-12-11T01:59:45.825Z,6.13
2017-12-11T02:00:51.527Z,6.12
2017-12-11T02:01:57.250Z,6.13
2017-12-11T02:03:02.684Z,6.12
2017-12-11T02:04:08.392Z,6.17
2017-12-11T02:05:14.095Z,6.20
2017-12-11T02:06:19.799Z,6.23
2017-12-11T02:07:25.504Z,6.28
2017-12-11T02:08:31.216Z,6.34
2017-12-11T02:09:37.943Z,6.38
2017-12-11T02:10:43.521Z,6.41
2017-12-11T02:11:49.971Z,6.45
2017-12-11T02:12:56.432Z,6.50
2017-12-11T02:14:02.202Z,6.54
2017-12-11T02:15:08.904Z,6.56
2017-12-11T02:16:13.965Z,6.58
2017-12-11T02:17:20.457Z,6.60
2017-12-11T02:18:26.181Z,6.62
2017-12-11T02:19:32.009Z,6.61
2017-12-11T02:20:37.070Z,6.62
2017-12-11T02:21:42.178Z,6.61
2017-12-11T02:22:47.219Z,6.58
2017-12-11T02:23:52.421Z,6.55
2017-12-11T02:24:58.591Z,6.52
2017-12-11T02:26:03.631Z,6.49
2017-12-11T02:27:08.677Z,6.46
2017-12-11T02:28:13.721Z,6.44
2017-12-11T02:29:18.769Z,6.37
2017-12-11T02:30:24.474Z,6.36
2017-12-11T02:31:29.574Z,6.33
2017-12-11T02:32:34.673Z,6.31
2017-12-11T02:33:40.512Z,6.30
2017-12-11T02:34:46.326Z,6.28
2017-12-11T02:35:52.504Z,6.25
2017-12-11T02:36:58.124Z,6.25
2017-12-11T02:38:03.524Z,6.23
2017-12-11T02:39:09.243Z,6.22
2017-12-11T02:40:14.269Z,6.19
2017-12-11T02:41:19.352Z,6.16
2017-12-11T02:42:24.381Z,6.15
2017-12-11T02:43:30.509Z,6.14
2017-12-11T02:44:35.535Z,6.14
2017-12-11T02:45:40.601Z,6.13
2017-12-11T02:46:46.427Z,6.11
2017-12-11T02:47:52.236Z,6.11
2017-12-11T02:48:57.459Z,6.11
2017-12-11T02:50:03.157Z,6.12
2017-12-11T02:51:08.865Z,6.10
2017-12-11T02:52:14.600Z,6.11
2017-12-11T02:53:19.634Z,6.11
2017-12-11T02:54:25.347Z,6.12
2017-12-11T02:55:31.076Z,6.09
2017-12-11T02:56:36.772Z,6.07
2017-12-11T02:57:42.492Z,6.07
2017-12-11T02:58:48.974Z,6.08
2017-12-11T02:59:54.705Z,6.08
2017-12-11T03:01:00.865Z,6.05
2017-12-11T03:02:06.556Z,6.03
2017-12-11T03:03:11.961Z,6.04
2017-12-11T03:04:17.668Z,6.06
2017-12-11T03:05:24.147Z,6.06
2017-12-11T03:06:29.829Z,6.07
2017-12-11T03:07:35.529Z,6.11
2017-12-11T03:08:41.243Z,6.14
2017-12-11T03:09:47.726Z,6.13
2017-12-11T03:10:53.453Z,6.15
2017-12-11T03:11:59.900Z,6.14
2017-12-11T03:13:06.364Z,6.13
2017-12-11T03:14:12.089Z,6.13
2017-12-11T03:15:17.812Z,6.11
2017-12-11T03:16:23.526Z,6.09
2017-12-11T03:17:29.232Z,6.11
2017-12-11T03:18:34.937Z,6.09
2017-12-11T03:19:40.832Z,6.11
2017-12-11T03:20:46.542Z,6.13
2017-12-11T03:21:53.016Z,6.11
2017-12-11T03:22:59.476Z,6.11
2017-12-11T03:24:05.266Z,6.10
2017-12-11T03:25:10.988Z,6.04
2017-12-11T03:26:16.667Z,6.10
2017-12-11T03:27:22.390Z,6.12
2017-12-11T03:28:28.078Z,6.11
2017-12-11T03:29:33.817Z,6.10
2017-12-11T03:30:39.988Z,6.12
2017-12-11T03:31:45.359Z,6.14
2017-12-11T03:32:50.385Z,6.15
2017-12-11T03:33:55.764Z,6.12
2017-12-11T03:35:01.456Z,6.11
2017-12-11T03:36:07.207Z,6.10
2017-12-11T03:37:12.908Z,6.08
2017-12-11T03:38:18.597Z,6.08
2017-12-11T03:39:25.086Z,6.08
2017-12-11T03:40:30.808Z,6.07
2017-12-11T03:41:37.311Z,6.08
2017-12-11T03:42:43.046Z,6.09
2017-12-11T03:43:48.747Z,6.09
2017-12-11T03:44:55.229Z,6.10
2017-12-11T03:46:00.966Z,6.11
2017-12-11T03:47:06.711Z,6.12
2017-12-11T03:48:12.423Z,6.14
2017-12-11T03:49:18.976Z,6.15
2017-12-11T03:50:24.679Z,6.15
2017-12-11T03:51:30.385Z,6.17
2017-12-11T03:52:36.104Z,6.18
2017-12-11T03:53:41.800Z,6.20
2017-12-11T03:54:47.303Z,6.22
2017-12-11T03:55:53.239Z,6.24
2017-12-11T03:56:59.712Z,6.23
2017-12-11T03:58:05.467Z,6.22
2017-12-11T03:59:11.164Z,6.22
2017-12-11T04:00:16.885Z,6.20
2017-12-11T04:01:22.247Z,6.20
2017-12-11T04:02:28.729Z,6.21
2017-12-11T04:03:34.437Z,6.20
2017-12-11T04:04:41.117Z,6.18
2017-12-11T04:05:47.599Z,6.18
2017-12-11T04:06:53.289Z,6.16
2017-12-11T04:07:59.012Z,6.15
2017-12-11T04:09:03.992Z,6.15
2017-12-11T04:10:09.908Z,6.13
2017-12-11T04:11:15.596Z,6.13
2017-12-11T04:12:21.202Z,6.13
2017-12-11T04:13:27.672Z,6.12
2017-12-11T04:14:33.392Z,6.12
2017-12-11T04:15:39.860Z,6.12
2017-12-11T04:16:46.327Z,6.15
2017-12-11T04:17:52.016Z,6.14
2017-12-11T04:18:58.484Z,6.14
2017-12-11T04:20:04.033Z,6.13
2017-12-11T04:21:10.480Z,6.15
2017-12-11T04:22:16.173Z,6.18
2017-12-11T04:23:21.861Z,6.21
2017-12-11T04:24:27.564Z,6.21
2017-12-11T04:25:33.294Z,6.20
2017-12-11T04:26:38.990Z,6.23
2017-12-11T04:27:45.267Z,6.25
2017-12-11T04:28:51.726Z,6.29
2017-12-11T04:29:58.217Z,6.31
2017-12-11T04:31:03.933Z,6.34
2017-12-11T04:32:09.628Z,6.34
2017-12-11T04:33:16.838Z,6.34
2017-12-11T04:34:23.353Z,6.32
2017-12-11T04:35:29.284Z,6.35
2017-12-11T04:36:35.005Z,6.36
2017-12-11T04:37:40.504Z,6.39
2017-12-11T04:38:46.213Z,6.40
2017-12-11T04:39:51.923Z,6.43
2017-12-11T04:40:57.622Z,6.45
2017-12-11T04:42:04.384Z,6.47
2017-12-11T04:43:10.072Z,6.50
2017-12-11T04:44:15.764Z,6.53
2017-12-11T04:45:21.479Z,6.55
2017-12-11T04:46:27.192Z,6.54
2017-12-11T04:47:32.935Z,6.54
2017-12-11T04:48:38.700Z,6.56
2017-12-11T04:49:44.416Z,6.58
2017-12-11T04:50:50.115Z,6.61
2017-12-11T04:51:56.573Z,6.63
2017-12-11T04:53:03.068Z,6.68
2017-12-11T04:54:08.774Z,6.72
2017-12-11T04:55:15.231Z,6.76
2017-12-11T04:56:21.487Z,6.78
2017-12-11T04:57:27.944Z,6.79
2017-12-11T04:58:34.433Z,6.82
2017-12-11T04:59:40.137Z,6.85
2017-12-11T05:00:46.651Z,6.86
2017-12-11T05:01:52.391Z,6.86
2017-12-11T05:02:58.094Z,6.87
2017-12-11T05:04:04.576Z,6.85
2017-12-11T05:05:09.944Z,6.85
2017-12-11T05:06:15.340Z,6.83
2017-12-11T05:07:21.047Z,6.84
2017-12-11T05:08:26.724Z,6.85
2017-12-11T05:09:32.593Z,6.85
2017-12-11T05:10:38.608Z,6.87
2017-12-11T05:11:44.322Z,6.89
2017-12-11T05:12:50.060Z,6.87
2017-12-11T05:13:55.837Z,6.84
2017-12-11T05:15:01.632Z,6.82
2017-12-11T05:16:07.402Z,6.79
2017-12-11T05:17:13.194Z,6.82
2017-12-11T05:18:18.908Z,6.81
2017-12-11T05:19:24.597Z,6.79
2017-12-11T05:20:30.388Z,6.80
2017-12-11T05:21:35.431Z,6.82
2017-12-11T05:22:41.139Z,6.82
2017-12-11T05:23:46.834Z,6.83
2017-12-11T05:24:52.553Z,6.82
2017-12-11T05:25:58.279Z,6.82
2017-12-11T05:27:03.999Z,6.80
2017-12-11T05:28:09.769Z,6.81
2017-12-11T05:29:15.508Z,6.83
2017-12-11T05:30:21.222Z,6.84
2017-12-11T05:31:27.075Z,6.87
2017-12-11T05:32:32.943Z,6.90
2017-12-11T05:33:38.639Z,6.92
2017-12-11T05:34:45.089Z,6.94
2017-12-11T05:35:51.078Z,6.97
2017-12-11T05:36:56.183Z,7.00
2017-12-11T05:38:02.009Z,7.01
2017-12-11T05:39:08.698Z,7.02
2017-12-11T05:40:14.426Z,7.03
2017-12-11T05:41:19.799Z,7.04
2017-12-11T05:42:25.531Z,7.02
2017-12-11T05:43:31.239Z,7.04
2017-12-11T05:44:36.948Z,7.06
2017-12-11T05:45:43.645Z,7.05
2017-12-11T05:46:49.360Z,7.06
2017-12-11T05:47:55.844Z,7.06
2017-12-11T05:49:01.616Z,7.06
2017-12-11T05:50:07.333Z,7.04
2017-12-11T05:51:13.046Z,6.99
2017-12-11T05:52:19.513Z,7.00
2017-12-11T05:53:26.023Z,7.00
2017-12-11T05:54:31.729Z,6.97
2017-12-11T05:55:37.558Z,7.00
2017-12-11T05:56:44.071Z,6.98
2017-12-11T05:57:50.014Z,6.98
2017-12-11T05:58:55.828Z,7.00
2017-12-11T06:00:01.705Z,7.01
2017-12-11T06:01:07.657Z,6.99
2017-12-11T06:02:13.888Z,7.02
2017-12-11T06:03:19.810Z,7.04
2017-12-11T06:04:25.542Z,7.06
2017-12-11T06:05:31.469Z,7.11
2017-12-11T06:06:37.963Z,7.16
2017-12-11T06:07:43.989Z,7.20
2017-12-11T06:08:49.766Z,7.21
2017-12-11T06:09:55.505Z,7.25
2017-12-11T06:11:01.265Z,7.28
2017-12-11T06:12:07.073Z,7.32
2017-12-11T06:13:12.777Z,7.36
2017-12-11T06:14:18.308Z,7.38
2017-12-11T06:15:24.049Z,7.39
2017-12-11T06:16:30.716Z,7.39
2017-12-11T06:17:36.898Z,7.39
2017-12-11T06:18:43.380Z,7.37
2017-12-11T06:19:49.223Z,7.36
2017-12-11T06:20:54.976Z,7.34
2017-12-11T06:22:00.861Z,7.31
2017-12-11T06:23:06.620Z,7.27
2017-12-11T06:24:12.863Z,7.34
2017-12-11T06:25:18.621Z,7.31
2017-12-11T06:26:25.117Z,7.28
2017-12-11T06:27:30.852Z,7.25
2017-12-11T06:28:37.353Z,7.25
2017-12-11T06:29:43.241Z,7.28
2017-12-11T06:30:49.065Z,7.31
2017-12-11T06:31:54.870Z,7.33
2017-12-11T06:33:01.489Z,7.31
2017-12-11T06:34:07.288Z,7.37
2017-12-11T06:35:13.277Z,7.39
2017-12-11T06:36:20.080Z,7.40
2017-12-11T06:37:27.425Z,7.42
2017-12-11T06:38:34.688Z,7.41
2017-12-11T06:39:41.942Z,7.43
2017-12-11T06:40:48.380Z,7.43
2017-12-11T06:41:54.286Z,7.44
2017-12-11T06:42:59.995Z,7.45
2017-12-11T06:44:06.298Z,7.46
2017-12-11T06:45:12.119Z,7.46
2017-12-11T06:46:18.779Z,7.47
2017-12-11T06:47:24.502Z,7.48
2017-12-11T06:48:30.313Z,7.47
2017-12-11T06:49:36.039Z,7.49
2017-12-11T06:50:41.773Z,7.50
2017-12-11T06:51:47.537Z,7.50
2017-12-11T06:52:54.065Z,7.47
2017-12-11T06:54:00.503Z,7.42
2017-12-11T06:55:06.323Z,7.38
2017-12-11T06:56:12.208Z,7.39
2017-12-11T06:57:18.000Z,7.37
2017-12-11T06:58:23.902Z,7.38
2017-12-11T06:59:29.687Z,7.41
2017-12-11T07:00:35.450Z,7.44
2017-12-11T07:01:41.144Z,7.46
2017-12-11T07:02:47.731Z,7.47
2017-12-11T07:03:53.528Z,7.51
2017-12-11T07:05:00.082Z,7.53
2017-12-11T07:06:05.790Z,7.55
2017-12-11T07:07:11.492Z,7.56
2017-12-11T07:08:17.253Z,7.56
2017-12-11T07:09:23.765Z,7.54
2017-12-11T07:10:29.493Z,7.52
2017-12-11T07:11:35.189Z,7.53
2017-12-11T07:12:41.655Z,7.51
2017-12-11T07:13:48.141Z,7.49
2017-12-11T07:14:53.926Z,7.43
2017-12-11T07:15:59.666Z,7.39
2017-12-11T07:17:05.372Z,7.34
2017-12-11T07:18:11.178Z,7.31
2017-12-11T07:19:17.640Z,7.29
2017-12-11T07:20:24.128Z,7.28
2017-12-11T07:21:29.861Z,7.27
2017-12-11T07:22:35.620Z,7.25
2017-12-11T07:23:41.359Z,7.26
2017-12-11T07:24:47.892Z,7.28
2017-12-11T07:25:54.355Z,7.31
2017-12-11T07:27:00.088Z,7.34
2017-12-11T07:28:06.604Z,7.39
2017-12-11T07:29:12.320Z,7.42
2017-12-11T07:30:18.023Z,7.44
2017-12-11T07:31:24.499Z,7.45
2017-12-11T07:32:30.310Z,7.46
2017-12-11T07:33:36.023Z,7.47
2017-12-11T07:34:41.755Z,7.48
2017-12-11T07:35:47.477Z,7.49
2017-12-11T07:36:53.195Z,7.51
2017-12-11T07:37:59.050Z,7.53
2017-12-11T07:39:04.247Z,7.53
2017-12-11T07:40:09.968Z,7.56
2017-12-11T07:41:15.693Z,7.57
2017-12-11T07:42:22.163Z,7.59
2017-12-11T07:43:27.888Z,7.58
2017-12-11T07:44:34.354Z,7.57
2017-12-11T07:45:40.070Z,7.58
2017-12-11T07:46:46.593Z,7.59
2017-12-11T07:47:52.284Z,7.59
2017-12-11T07:48:58.799Z,7.58
2017-12-11T07:50:04.510Z,7.57
2017-12-11T07:51:10.206Z,7.56
2017-12-11T07:52:15.925Z,7.58
2017-12-11T07:53:21.836Z,7.59
2017-12-11T07:54:27.613Z,7.60
2017-12-11T07:55:33.325Z,7.60
2017-12-11T07:56:39.050Z,7.61
2017-12-11T07:57:44.739Z,7.62
2017-12-11T07:58:50.492Z,7.63
2017-12-11T07:59:56.236Z,7.66
2017-12-11T08:01:01.945Z,7.65
2017-12-11T08:02:07.664Z,7.67
2017-12-11T08:03:13.359Z,7.68
2017-12-11T08:04:19.071Z,7.68
2017-12-11T08:05:24.802Z,7.67
2017-12-11T08:06:30.569Z,7.68
2017-12-11T08:07:36.297Z,7.66
2017-12-11T08:08:42.025Z,7.67
2017-12-11T08:09:47.747Z,7.67
2017-12-11T08:10:53.466Z,7.66
2017-12-11T08:11:59.185Z,7.65
2017-12-11T08:13:04.872Z,7.67
2017-12-11T08:14:10.597Z,7.66
2017-12-11T08:15:16.380Z,7.67
2017-12-11T08:16:22.099Z,7.68
2017-12-11T08:17:27.875Z,7.68
2017-12-11T08:18:33.581Z,7.67
2017-12-11T08:19:39.272Z,7.68
2017-12-11T08:20:44.979Z,7.68
2017-12-11T08:21:50.718Z,7.69
2017-12-11T08:22:56.444Z,7.70
2017-12-11T08:24:02.179Z,7.71
2017-12-11T08:25:07.888Z,7.72
2017-12-11T08:26:14.391Z,7.73
2017-12-11T08:27:19.805Z,7.73
2017-12-11T08:28:25.553Z,7.73
2017-12-11T08:29:31.287Z,7.71
2017-12-11T08:30:37.079Z,7.74
2017-12-11T08:31:42.884Z,7.75
2017-12-11T08:32:48.703Z,7.69
2017-12-11T08:33:54.486Z,7.68
2017-12-11T08:35:00.493Z,7.62
2017-12-11T08:36:07.178Z,7.64
2017-12-11T08:37:12.942Z,7.65
2017-12-11T08:38:18.906Z,7.67
2017-12-11T08:39:24.611Z,7.65
2017-12-11T08:40:30.455Z,7.66
2017-12-11T08:41:36.212Z,7.69
2017-12-11T08:42:42.012Z,7.69
2017-12-11T08:43:48.510Z,7.69
2017-12-11T08:44:54.209Z,7.67
2017-12-11T08:45:59.718Z,7.65
2017-12-11T08:47:05.419Z,7.65
2017-12-11T08:48:11.133Z,7.64
2017-12-11T08:49:16.956Z,7.65
2017-12-11T08:50:23.540Z,7.62
2017-12-11T08:51:29.282Z,7.58
2017-12-11T08:52:34.974Z,7.58
2017-12-11T08:53:41.228Z,7.55
2017-12-11T08:54:46.752Z,7.53
2017-12-11T08:55:52.454Z,7.49
2017-12-11T08:56:58.145Z,7.48
2017-12-11T08:58:03.852Z,7.40
2017-12-11T08:59:09.729Z,7.33
2017-12-11T09:00:15.579Z,7.22
2017-12-11T09:01:21.285Z,7.14
2017-12-11T09:02:26.967Z,7.08
2017-12-11T09:03:33.585Z,7.03
2017-12-11T09:04:39.353Z,6.96
2017-12-11T09:05:45.150Z,6.84
2017-12-11T09:06:50.830Z,6.77
2017-12-11T09:07:56.578Z,6.72
2017-12-11T09:09:02.274Z,6.65
2017-12-11T09:10:07.960Z,6.60
2017-12-11T09:11:13.783Z,6.51
2017-12-11T09:12:19.615Z,6.48
2017-12-11T09:13:25.480Z,6.40
2017-12-11T09:14:31.269Z,6.40
2017-12-11T09:15:37.052Z,6.37
2017-12-11T09:16:42.867Z,6.33
2017-12-11T09:17:48.769Z,6.31
2017-12-11T09:18:54.576Z,6.23
2017-12-11T09:20:00.443Z,6.13
2017-12-11T09:21:06.171Z,6.14
2017-12-11T09:22:12.245Z,6.14
2017-12-11T09:23:17.936Z,6.12
2017-12-11T09:24:23.633Z,6.08
2017-12-11T09:25:29.356Z,6.09
2017-12-11T09:26:35.112Z,6.12
2017-12-11T09:27:40.833Z,6.14
2017-12-11T09:28:46.548Z,6.13
2017-12-11T09:29:52.313Z,6.07
2017-12-11T09:30:58.103Z,6.03
2017-12-11T09:32:04.051Z,6.01
2017-12-11T09:33:09.789Z,5.96
2017-12-11T09:34:15.501Z,5.99
2017-12-11T09:35:21.231Z,5.91
2017-12-11T09:36:26.953Z,5.87
2017-12-11T09:37:32.667Z,5.80
2017-12-11T09:38:38.455Z,5.73
2017-12-11T09:39:44.138Z,5.76
2017-12-11T09:40:49.567Z,5.72
2017-12-11T09:41:55.273Z,5.77
2017-12-11T09:43:00.657Z,5.80
2017-12-11T09:44:06.404Z,5.80
2017-12-11T09:45:12.104Z,5.84
2017-12-11T09:46:18.589Z,5.84
2017-12-11T09:47:24.285Z,5.91
2017-12-11T09:48:30.016Z,5.94
2017-12-11T09:49:35.986Z,5.92
2017-12-11T09:50:41.817Z,5.91
2017-12-11T09:51:47.532Z,5.93
2017-12-11T09:52:54.077Z,5.91
2017-12-11T09:53:59.821Z,5.93
2017-12-11T09:55:05.562Z,5.93
2017-12-11T09:56:11.273Z,5.93
2017-12-11T09:57:17.033Z,5.87
2017-12-11T09:58:22.912Z,5.86
2017-12-11T09:59:28.839Z,5.82
2017-12-11T10:00:34.552Z,5.85
2017-12-11T10:01:40.260Z,5.82
2017-12-11T10:02:45.625Z,5.81
2017-12-11T10:03:51.355Z,5.78
2017-12-11T10:04:57.852Z,5.79
2017-12-11T10:06:05.303Z,5.80
2017-12-11T10:07:11.194Z,5.81
2017-12-11T10:08:16.920Z,5.76
2017-12-11T10:09:23.167Z,5.74
2017-12-11T10:10:28.886Z,5.78
2017-12-11T10:11:34.630Z,5.77
2017-12-11T10:12:40.408Z,5.78
2017-12-11T10:13:46.110Z,5.79
2017-12-11T10:14:51.879Z,5.77
2017-12-11T10:15:57.587Z,5.76
2017-12-11T10:17:04.095Z,5.77
2017-12-11T10:18:09.798Z,5.79
2017-12-11T10:19:14.853Z,5.75
2017-12-11T10:20:20.611Z,5.75
2017-12-11T10:21:26.328Z,5.73
2017-12-11T10:22:32.069Z,5.72
2017-12-11T10:23:37.863Z,5.70
2017-12-11T10:24:43.545Z,5.68
2017-12-11T10:25:49.248Z,5.65
2017-12-11T10:26:55.042Z,5.61
2017-12-11T10:28:00.804Z,5.57
2017-12-11T10:29:06.568Z,5.59
2017-12-11T10:30:12.615Z,5.56
2017-12-11T10:31:18.388Z,5.60
2017-12-11T10:32:24.205Z,5.64
2017-12-11T10:33:29.965Z,5.66
2017-12-11T10:34:35.694Z,5.69
2017-12-11T10:35:41.483Z,5.71
2017-12-11T10:36:47.767Z,5.72
2017-12-11T10:37:53.493Z,5.73
2017-12-11T10:38:59.253Z,5.77
2017-12-11T10:40:05.034Z,5.81
2017-12-11T10:41:11.501Z,5.83
2017-12-11T10:42:18.029Z,5.80
2017-12-11T10:43:24.511Z,5.79
2017-12-11T10:44:31.195Z,5.77
2017-12-11T10:45:37.783Z,5.75
2017-12-11T10:46:43.612Z,5.73
2017-12-11T10:47:49.320Z,5.79
2017-12-11T10:48:55.828Z,5.83
2017-12-11T10:50:01.599Z,5.81
2017-12-11T10:51:07.313Z,5.76
2017-12-11T10:52:13.026Z,5.78
2017-12-11T10:53:18.760Z,5.83
2017-12-11T10:54:24.458Z,5.79
2017-12-11T10:55:30.269Z,5.80
2017-12-11T10:56:36.032Z,5.77
2017-12-11T10:57:41.770Z,5.77
2017-12-11T10:58:47.546Z,5.76
2017-12-11T10:59:54.162Z,5.76
2017-12-11T11:00:59.947Z,5.77
2017-12-11T11:02:06.422Z,5.77
2017-12-11T11:03:12.196Z,5.80
2017-12-11T11:04:17.942Z,5.81
2017-12-11T11:05:23.702Z,5.78
2017-12-11T11:06:30.276Z,5.75
2017-12-11T11:07:36.802Z,5.78
2017-12-11T11:08:42.499Z,5.74
2017-12-11T11:09:48.212Z,5.70
2017-12-11T11:10:54.692Z,5.61
2017-12-11T11:12:00.501Z,5.57
2017-12-11T11:13:06.206Z,5.53
2017-12-11T11:14:11.938Z,5.53
2017-12-11T11:15:17.651Z,5.49
2017-12-11T11:16:23.361Z,5.48
2017-12-11T11:17:29.119Z,5.44
2017-12-11T11:18:36.061Z,5.45
2017-12-11T11:19:42.900Z,5.40
2017-12-11T11:20:48.699Z,5.33
2017-12-11T11:21:54.606Z,5.34
2017-12-11T11:23:00.471Z,5.29
2017-12-11T11:24:06.104Z,5.31
2017-12-11T11:25:12.622Z,5.31
2017-12-11T11:26:18.424Z,5.30
2017-12-11T11:27:24.939Z,5.34
2017-12-11T11:28:30.702Z,5.35
2017-12-11T11:29:37.225Z,5.38
2017-12-11T11:30:43.144Z,5.41
2017-12-11T11:31:48.882Z,5.43
2017-12-11T11:32:54.653Z,5.49
2017-12-11T11:34:00.409Z,5.43
2017-12-11T11:35:05.884Z,5.49
2017-12-11T11:36:12.006Z,5.52
2017-12-11T11:37:17.795Z,5.57
2017-12-11T11:38:24.288Z,5.64
2017-12-11T11:39:30.039Z,5.68
2017-12-11T11:40:35.765Z,5.75
2017-12-11T11:41:41.503Z,5.78
2017-12-11T11:42:47.228Z,5.73
2017-12-11T11:43:53.627Z,5.78
2017-12-11T11:44:59.363Z,5.72
2017-12-11T11:46:05.351Z,5.71
2017-12-11T11:47:11.099Z,5.70
2017-12-11T11:48:16.915Z,5.66
2017-12-11T11:49:22.681Z,5.68
2017-12-11T11:50:29.270Z,5.70
2017-12-11T11:51:35.795Z,5.73
2017-12-11T11:52:41.569Z,5.75
2017-12-11T11:53:47.357Z,5.74
2017-12-11T11:54:53.087Z,5.74
2017-12-11T11:55:58.654Z,5.70
2017-12-11T11:57:04.104Z,5.71
2017-12-11T11:58:10.014Z,5.71
2017-12-11T11:59:15.490Z,5.65
2017-12-11T12:00:20.555Z,5.62
2017-12-11T12:01:25.781Z,5.59
2017-12-11T12:02:31.557Z,5.62
2017-12-11T12:03:37.288Z,5.64
2017-12-11T12:04:43.138Z,5.68
2017-12-11T12:05:48.913Z,5.72
2017-12-11T12:06:54.719Z,5.76
2017-12-11T12:08:00.636Z,5.77
2017-12-11T12:09:05.815Z,5.74
2017-12-11T12:10:11.665Z,5.73
2017-12-11T12:11:17.486Z,5.79
2017-12-11T12:12:22.956Z,5.79
2017-12-11T12:13:29.478Z,5.78
2017-12-11T12:14:35.365Z,5.79
2017-12-11T12:15:41.274Z,5.83
2017-12-11T12:16:48.028Z,5.85
2017-12-11T12:17:54.108Z,5.81
2017-12-11T12:19:00.220Z,5.84
2017-12-11T12:20:06.020Z,5.85
2017-12-11T12:21:12.541Z,5.82
2017-12-11T12:22:18.343Z,5.81
2017-12-11T12:23:24.285Z,5.77
2017-12-11T12:24:29.793Z,5.68
2017-12-11T12:25:35.525Z,5.68
2017-12-11T12:26:41.354Z,5.69
2017-12-11T12:27:47.152Z,5.69
2017-12-11T12:28:52.940Z,5.75
2017-12-11T12:29:58.553Z,5.81
2017-12-11T12:31:04.099Z,5.87
2017-12-11T12:32:09.949Z,5.85
2017-12-11T12:33:15.385Z,5.87
2017-12-11T12:34:21.245Z,5.87
2017-12-11T12:35:27.792Z,5.91
2017-12-11T12:36:34.393Z,5.94
2017-12-11T12:37:40.132Z,5.98
2017-12-11T12:38:46.558Z,5.98
2017-12-11T12:39:53.068Z,6.01
2017-12-11T12:40:58.448Z,6.07
2017-12-11T12:42:04.788Z,6.05
2017-12-11T12:43:10.673Z,6.08
2017-12-11T12:44:16.428Z,6.05
2017-12-11T12:45:22.260Z,6.09
2017-12-11T12:46:27.864Z,6.09
2017-12-11T12:47:33.817Z,6.10
2017-12-11T12:48:40.312Z,6.09
2017-12-11T12:49:46.049Z,6.12
2017-12-11T12:50:51.810Z,6.08
2017-12-11T12:51:57.626Z,6.07
2017-12-11T12:53:03.372Z,6.11
2017-12-11T12:54:09.099Z,6.14
2017-12-11T12:55:14.813Z,6.15
2017-12-11T12:56:21.366Z,6.16
2017-12-11T12:57:27.883Z,6.18
2017-12-11T12:58:33.740Z,6.24
2017-12-11T12:59:39.445Z,6.23
2017-12-11T13:00:45.160Z,6.17
2017-12-11T13:01:50.915Z,6.16
2017-12-11T13:02:57.403Z,6.15
2017-12-11T13:04:03.112Z,6.15
2017-12-11T13:05:09.672Z,6.16
2017-12-11T13:06:16.215Z,6.18
2017-12-11T13:07:22.032Z,6.16
2017-12-11T13:08:27.755Z,6.16
2017-12-11T13:09:33.477Z,6.18
2017-12-11T13:10:39.180Z,6.19
2017-12-11T13:11:44.897Z,6.20
2017-12-11T13:12:50.654Z,6.22
2017-12-11T13:13:57.126Z,6.20
2017-12-11T13:15:02.840Z,6.20
2017-12-11T13:16:08.542Z,6.19
2017-12-11T13:17:14.240Z,6.15
2017-12-11T13:18:20.784Z,6.16
2017-12-11T13:19:26.484Z,6.18
2017-12-11T13:20:32.263Z,6.19
2017-12-11T13:21:37.991Z,6.16
2017-12-11T13:22:43.684Z,6.12
2017-12-11T13:23:50.192Z,6.09
2017-12-11T13:24:55.904Z,6.10
2017-12-11T13:26:01.618Z,6.14
2017-12-11T13:27:08.101Z,6.15
2017-12-11T13:28:13.866Z,6.17
2017-12-11T13:29:21.873Z,6.20
2017-12-11T13:30:27.844Z,6.18
2017-12-11T13:31:33.550Z,6.20
2017-12-11T13:32:39.113Z,6.25
2017-12-11T13:33:44.645Z,6.24
2017-12-11T13:34:50.427Z,6.28
2017-12-11T13:35:56.935Z,6.30
2017-12-11T13:37:02.646Z,6.32
2017-12-11T13:38:08.419Z,6.32
2017-12-11T13:39:14.866Z,6.35
2017-12-11T13:40:20.689Z,6.37
2017-12-11T13:41:26.481Z,6.37
2017-12-11T13:42:32.220Z,6.42
2017-12-11T13:43:38.729Z,6.40
2017-12-11T13:44:44.436Z,6.43
2017-12-11T13:45:50.196Z,6.45
2017-12-11T13:46:56.712Z,6.47
2017-12-11T13:48:02.415Z,6.50
2017-12-11T13:49:07.933Z,6.52
2017-12-11T13:50:13.724Z,6.52
2017-12-11T13:51:19.215Z,6.52
2017-12-11T13:52:24.933Z,6.55
2017-12-11T13:53:31.542Z,6.56
2017-12-11T13:54:37.440Z,6.56
2017-12-11T13:55:43.193Z,6.54
2017-12-11T13:56:49.677Z,6.56
2017-12-11T13:57:55.429Z,6.57
2017-12-11T13:59:01.194Z,6.58
2017-12-11T14:00:06.917Z,6.60
2017-12-11T14:01:12.692Z,6.64
2017-12-11T14:02:19.173Z,6.64
2017-12-11T14:03:25.120Z,6.64
2017-12-11T14:04:31.175Z,6.69
2017-12-11T14:05:37.798Z,6.67
2017-12-11T14:06:44.091Z,6.67
2017-12-11T14:07:50.951Z,6.69
2017-12-11T14:08:57.825Z,6.72
2017-12-11T14:10:05.677Z,6.71
2017-12-11T14:11:13.314Z,6.73
2017-12-11T14:12:19.991Z,6.75
2017-12-11T14:13:25.962Z,6.74
2017-12-11T14:14:31.885Z,6.78
2017-12-11T14:15:38.578Z,6.79
2017-12-11T14:16:45.694Z,6.80
2017-12-11T14:17:51.435Z,6.84
2017-12-11T14:18:57.312Z,6.90
2017-12-11T14:20:03.092Z,6.93
2017-12-11T14:21:10.284Z,6.97
2017-12-11T14:22:16.110Z,6.96
2017-12-11T14:23:22.809Z,6.98
2017-12-11T14:24:29.770Z,6.97
2017-12-11T14:25:37.260Z,7.00
2017-12-11T14:26:43.579Z,7.00
2017-12-11T14:27:50.402Z,7.03
2017-12-11T14:28:56.325Z,7.00
2017-12-11T14:30:04.223Z,7.03
2017-12-11T14:31:10.949Z,7.03
2017-12-11T14:32:17.630Z,7.03
2017-12-11T14:33:23.474Z,7.07
2017-12-11T14:34:31.374Z,7.07
2017-12-11T14:35:38.534Z,7.08
2017-12-11T14:36:45.910Z,7.09